createdAt,value
2018-11-03T00:00:27.798Z,101879.29
2018-11-03T00:02:55.266Z,101873.95
2018-11-03T00:05:22.798Z,101870.84
2018-11-03T00:07:50.322Z,101868.58
2018-11-03T00:10:17.805Z,101866.06
2018-11-03T00:12:45.289Z,101864.44
2018-11-03T00:15:12.842Z,101859.55
2018-11-03T00:17:40.221Z,101857.06
2018-11-03T00:20:07.681Z,101853.30
2018-11-03T00:22:35.231Z,101857.31
2018-11-03T00:25:02.944Z,101854.68
2018-11-03T00:27:30.595Z,101851.54
2018-11-03T00:29:58.123Z,101840.09
2018-11-03T00:32:25.883Z,101836.19
2018-11-03T00:34:53.422Z,101846.95
2018-11-03T00:37:21.078Z,101849.34
2018-11-03T00:39:48.570Z,101848.80
2018-11-03T00:42:16.224Z,101844.16
2018-11-03T00:44:43.782Z,101853.30
2018-11-03T00:47:11.206Z,101854.61
2018-11-03T00:49:38.785Z,101856.69
2018-11-03T00:52:06.312Z,101854.74
2018-11-03T00:54:33.816Z,101861.80
2018-11-03T00:57:01.244Z,101861.32
2018-11-03T00:59:28.768Z,101867.59
2018-11-03T01:01:56.295Z,101874.58
2018-11-03T01:04:23.845Z,101875.17
2018-11-03T01:06:51.338Z,101879.98
2018-11-03T01:09:18.826Z,101872.91
2018-11-03T01:11:46.538Z,101876.80
2018-11-03T01:14:14.128Z,101878.48
2018-11-03T01:16:41.624Z,101877.27
2018-11-03T01:19:09.359Z,101876.65
2018-11-03T01:21:36.950Z,101880.98
2018-11-03T01:24:04.926Z,101880.98
2018-11-03T01:26:32.427Z,101876.86
2018-11-03T01:29:00.342Z,101879.11
2018-11-03T01:31:27.804Z,101880.98
2018-11-03T01:33:55.359Z,101887.17
2018-11-03T01:36:23.183Z,101885.30
2018-11-03T01:38:50.662Z,101879.28
2018-11-03T01:41:18.168Z,101893.20
2018-11-03T01:43:45.628Z,101889.32
2018-11-03T01:46:13.088Z,101881.05
2018-11-03T01:48:40.761Z,101886.86
2018-11-03T01:51:08.260Z,101887.70
2018-11-03T01:53:35.686Z,101878.87
2018-11-03T01:56:03.162Z,101873.61
2018-11-03T01:58:30.670Z,101874.84
2018-11-03T02:00:58.224Z,101877.41
2018-11-03T02:03:25.641Z,101879.66
2018-11-03T02:05:53.112Z,101876.86
2018-11-03T02:08:20.564Z,101877.34
2018-11-03T02:10:48.052Z,101877.80
2018-11-03T02:13:15.484Z,101877.10
2018-11-03T02:15:43.080Z,101883.37
2018-11-03T02:18:10.536Z,101884.86
2018-11-03T02:20:38.139Z,101876.27
2018-11-03T02:23:05.570Z,101880.67
2018-11-03T02:25:33.054Z,101878.66
2018-11-03T02:28:00.511Z,101878.45
2018-11-03T02:30:28.002Z,101876.73
2018-11-03T02:32:55.399Z,101876.45
2018-11-03T02:35:22.898Z,101871.80
2018-11-03T02:37:50.474Z,101869.38
2018-11-03T02:40:18.006Z,101879.58
2018-11-03T02:42:45.463Z,101874.20
2018-11-03T02:45:12.893Z,101874.33
2018-11-03T02:47:40.853Z,101876.92
2018-11-03T02:50:10.598Z,101874.16
2018-11-03T02:52:38.046Z,101871.53
2018-11-03T02:55:05.616Z,101868.48
2018-11-03T02:57:33.314Z,101874.94
2018-11-03T03:00:00.873Z,101871.69
2018-11-03T03:02:28.339Z,101872.35
2018-11-03T03:04:55.798Z,101874.92
2018-11-03T03:07:23.323Z,101876.95
2018-11-03T03:09:50.720Z,101881.81
2018-11-03T03:12:18.181Z,101880.77
2018-11-03T03:14:45.600Z,101881.04
2018-11-03T03:17:13.171Z,101885.69
2018-11-03T03:19:40.649Z,101882.23
2018-11-03T03:22:08.218Z,101884.98
2018-11-03T03:24:35.638Z,101884.80
2018-11-03T03:27:03.202Z,101889.72
2018-11-03T03:29:30.653Z,101895.32
2018-11-03T03:31:58.078Z,101895.20
2018-11-03T03:34:25.519Z,101885.45
2018-11-03T03:36:53.086Z,101885.78
2018-11-03T03:39:20.508Z,101887.04
2018-11-03T03:41:47.958Z,101885.61
2018-11-03T03:44:15.449Z,101885.42
2018-11-03T03:46:42.905Z,101890.54
2018-11-03T03:49:10.346Z,101884.39
2018-11-03T03:51:37.778Z,101890.81
2018-11-03T03:54:05.186Z,101888.05
2018-11-03T03:56:32.759Z,101892.62
2018-11-03T03:59:00.384Z,101889.62
2018-11-03T04:01:27.818Z,101890.82
2018-11-03T04:03:55.384Z,101897.87
2018-11-03T04:06:22.957Z,101892.77
2018-11-03T04:08:50.476Z,101898.55
2018-11-03T04:11:17.949Z,101898.55
2018-11-03T04:13:45.778Z,101885.44
2018-11-03T04:16:13.210Z,101890.44
2018-11-03T04:18:40.727Z,101886.37
2018-11-03T04:21:08.320Z,101888.59
2018-11-03T04:23:35.742Z,101887.28
2018-11-03T04:26:03.354Z,101890.59
2018-11-03T04:28:30.778Z,101889.34
2018-11-03T04:30:58.217Z,101885.36
2018-11-03T04:33:25.710Z,101887.20
2018-11-03T04:35:53.124Z,101887.01
2018-11-03T04:38:20.500Z,101891.58
2018-11-03T04:40:47.981Z,101896.61
2018-11-03T04:43:15.507Z,101894.16
2018-11-03T04:45:42.946Z,101897.44
2018-11-03T04:48:10.366Z,101894.48
2018-11-03T04:50:37.882Z,101900.83
2018-11-03T04:53:05.375Z,101901.12
2018-11-03T04:55:32.890Z,101901.36
2018-11-03T04:58:00.502Z,101902.33
2018-11-03T05:00:27.943Z,101907.70
2018-11-03T05:02:55.373Z,101906.98
2018-11-03T05:05:22.859Z,101908.92
2018-11-03T05:07:50.270Z,101901.59
2018-11-03T05:10:18.009Z,101903.77
2018-11-03T05:12:45.404Z,101907.95
2018-11-03T05:15:12.884Z,101912.19
2018-11-03T05:17:40.341Z,101912.48
2018-11-03T05:20:08.121Z,101908.79
2018-11-03T05:22:35.634Z,101912.51
2018-11-03T05:25:03.334Z,101923.24
2018-11-03T05:27:30.830Z,101919.39
2018-11-03T05:29:58.299Z,101909.58
2018-11-03T05:32:25.796Z,101905.28
2018-11-03T05:34:53.272Z,101908.52
2018-11-03T05:37:20.730Z,101906.82
2018-11-03T05:39:48.185Z,101908.41
2018-11-03T05:42:15.629Z,101916.89
2018-11-03T05:44:44.008Z,101915.06
2018-11-03T05:47:11.722Z,101922.57
2018-11-03T05:49:39.107Z,101918.48
2018-11-03T05:52:06.541Z,101916.61
2018-11-03T05:54:34.043Z,101924.67
2018-11-03T05:57:01.534Z,101919.92
2018-11-03T05:59:29.095Z,101923.85
2018-11-03T06:01:56.675Z,101925.30
2018-11-03T06:04:24.119Z,101926.69
2018-11-03T06:06:51.758Z,101922.24
2018-11-03T06:09:19.389Z,101923.50
2018-11-03T06:11:46.842Z,101925.59
2018-11-03T06:14:14.296Z,101925.72
2018-11-03T06:16:42.246Z,101931.96
2018-11-03T06:19:09.714Z,101933.22
2018-11-03T06:21:37.184Z,101935.72
2018-11-03T06:24:04.750Z,101939.94
2018-11-03T06:26:32.228Z,101932.53
2018-11-03T06:29:00.009Z,101933.75
2018-11-03T06:31:27.720Z,101932.53
2018-11-03T06:33:55.230Z,101937.59
2018-11-03T06:36:22.670Z,101931.17
2018-11-03T06:38:50.201Z,101931.34
2018-11-03T06:41:17.810Z,101936.80
2018-11-03T06:43:45.337Z,101935.36
2018-11-03T06:46:12.946Z,101936.84
2018-11-03T06:48:40.407Z,101938.84
2018-11-03T06:51:07.915Z,101944.25
2018-11-03T06:53:35.437Z,101942.70
2018-11-03T06:56:03.084Z,101937.11
2018-11-03T06:58:30.628Z,101938.92
2018-11-03T07:00:58.278Z,101938.69
2018-11-03T07:03:25.786Z,101943.61
2018-11-03T07:05:53.537Z,101950.14
2018-11-03T07:08:21.301Z,101951.10
2018-11-03T07:10:48.756Z,101951.97
2018-11-03T07:13:16.475Z,101941.68
2018-11-03T07:15:43.927Z,101940.78
2018-11-03T07:18:11.331Z,101939.30
2018-11-03T07:20:38.963Z,101939.20
2018-11-03T07:23:06.593Z,101940.62
2018-11-03T07:25:34.137Z,101943.77
2018-11-03T07:28:01.589Z,101940.19
2018-11-03T07:30:29.117Z,101937.36
2018-11-03T07:32:56.607Z,101941.28
2018-11-03T07:35:24.111Z,101943.59
2018-11-03T07:37:51.589Z,101931.63
2018-11-03T07:40:19.111Z,101928.80
2018-11-03T07:42:46.771Z,101925.94
2018-11-03T07:45:14.387Z,101916.72
2018-11-03T07:47:41.935Z,101918.53
2018-11-03T07:50:11.120Z,101926.56
2018-11-03T07:52:38.641Z,101935.97
2018-11-03T07:55:07.553Z,101936.30
2018-11-03T07:57:35.135Z,101940.32
2018-11-03T08:00:02.693Z,101935.91
2018-11-03T08:02:30.117Z,101941.34
2018-11-03T08:04:57.537Z,101939.23
2018-11-03T08:07:25.301Z,101945.69
2018-11-03T08:09:52.947Z,101941.87
2018-11-03T08:12:20.495Z,101941.99
2018-11-03T08:14:47.943Z,101939.31
2018-11-03T08:17:15.394Z,101931.30
2018-11-03T08:19:43.052Z,101927.28
2018-11-03T08:22:10.604Z,101932.96
2018-11-03T08:24:38.075Z,101929.55
2018-11-03T08:27:06.396Z,101927.86
2018-11-03T08:29:33.911Z,101922.38
2018-11-03T08:32:01.651Z,101931.56
2018-11-03T08:34:29.142Z,101931.41
2018-11-03T08:36:56.713Z,101927.84
2018-11-03T08:39:24.361Z,101929.83
2018-11-03T08:41:51.933Z,101940.70
2018-11-03T08:44:19.377Z,101942.11
2018-11-03T08:46:46.911Z,101933.84
2018-11-03T08:49:14.391Z,101936.40
2018-11-03T08:51:42.114Z,101938.85
2018-11-03T08:54:09.573Z,101941.08
2018-11-03T08:56:37.137Z,101932.67
2018-11-03T08:59:05.231Z,101930.08
2018-11-03T09:01:32.718Z,101932.30
2018-11-03T09:04:00.249Z,101937.08
2018-11-03T09:06:27.762Z,101920.98
2018-11-03T09:08:55.258Z,101924.56
2018-11-03T09:11:22.931Z,101923.53
2018-11-03T09:13:50.445Z,101924.30
2018-11-03T09:16:17.945Z,101926.62
2018-11-03T09:18:45.482Z,101929.11
2018-11-03T09:21:13.090Z,101930.48
2018-11-03T09:23:40.563Z,101929.55
2018-11-03T09:26:08.080Z,101931.19
2018-11-03T09:28:35.581Z,101932.18
2018-11-03T09:31:03.151Z,101925.29
2018-11-03T09:33:30.565Z,101928.55
2018-11-03T09:35:58.417Z,101918.85
2018-11-03T09:38:26.016Z,101916.08
2018-11-03T09:40:53.506Z,101918.02
2018-11-03T09:43:21.068Z,101911.64
2018-11-03T09:45:48.558Z,101917.90
2018-11-03T09:48:15.977Z,101913.95
2018-11-03T09:50:43.620Z,101909.77
2018-11-03T09:53:10.941Z,101905.55
2018-11-03T09:55:38.515Z,101900.45
2018-11-03T09:58:06.190Z,101902.52
2018-11-03T10:00:33.839Z,101901.67
2018-11-03T10:03:01.305Z,101897.65
2018-11-03T10:05:28.857Z,101904.92
2018-11-03T10:07:57.743Z,101896.58
2018-11-03T10:10:25.322Z,101899.56
2018-11-03T10:12:52.882Z,101896.06
2018-11-03T10:15:20.489Z,101900.63
2018-11-03T10:17:47.985Z,101906.88
2018-11-03T10:20:15.614Z,101900.41
2018-11-03T10:22:43.193Z,101893.41
2018-11-03T10:25:15.827Z,101894.37
2018-11-03T10:27:44.160Z,101893.50
2018-11-03T10:30:13.139Z,101893.02
2018-11-03T10:32:41.309Z,101881.34
2018-11-03T10:35:09.872Z,101876.07
2018-11-03T10:37:37.321Z,101877.84
2018-11-03T10:40:06.961Z,101875.61
2018-11-03T10:42:34.441Z,101873.92
2018-11-03T10:45:02.194Z,101872.92
2018-11-03T10:47:29.675Z,101867.22
2018-11-03T10:49:57.361Z,101864.77
2018-11-03T10:52:24.867Z,101855.92
2018-11-03T10:54:52.345Z,101851.89
2018-11-03T10:57:19.920Z,101851.98
2018-11-03T10:59:47.375Z,101845.98
2018-11-03T11:02:20.735Z,101839.09
2018-11-03T11:04:53.787Z,101839.03
2018-11-03T11:07:26.931Z,101837.05
2018-11-03T11:09:59.967Z,101821.88
2018-11-03T11:12:36.233Z,101822.23
2018-11-03T11:15:03.902Z,101813.50
2018-11-03T11:17:31.595Z,101813.77
2018-11-03T11:19:59.169Z,101818.50
2018-11-03T11:22:26.901Z,101810.09
2018-11-03T11:24:54.477Z,101811.33
2018-11-03T11:27:22.194Z,101810.95
2018-11-03T11:29:49.961Z,101805.05
2018-11-03T11:32:17.484Z,101800.95
2018-11-03T11:34:45.032Z,101801.16
2018-11-03T11:37:12.599Z,101799.09
2018-11-03T11:39:40.153Z,101794.28
2018-11-03T11:42:07.770Z,101791.06
2018-11-03T11:44:35.452Z,101796.45
2018-11-03T11:47:03.176Z,101792.49
2018-11-03T11:49:30.710Z,101789.47
2018-11-03T11:51:58.205Z,101783.52
2018-11-03T11:54:25.937Z,101778.98
2018-11-03T11:56:53.503Z,101776.05
2018-11-03T11:59:20.940Z,101776.03
2018-11-03T12:01:48.841Z,101775.57
2018-11-03T12:04:16.303Z,101773.76
2018-11-03T12:06:43.866Z,101760.38
2018-11-03T12:09:11.330Z,101764.70
2018-11-03T12:11:38.921Z,101759.13
2018-11-03T12:14:06.798Z,101750.89
2018-11-03T12:16:34.412Z,101752.13
2018-11-03T12:19:02.105Z,101745.58
2018-11-03T12:21:29.616Z,101741.31
2018-11-03T12:23:57.242Z,101744.69
2018-11-03T12:26:24.852Z,101737.26
2018-11-03T12:28:52.440Z,101728.47
2018-11-03T12:31:20.015Z,101736.67
2018-11-03T12:33:47.634Z,101725.23
2018-11-03T12:36:15.091Z,101727.98
2018-11-03T12:38:42.940Z,101735.53
2018-11-03T12:41:10.525Z,101725.85
2018-11-03T12:43:38.080Z,101721.33
2018-11-03T12:46:05.672Z,101717.68
2018-11-03T12:48:33.167Z,101713.93
2018-11-03T12:51:00.682Z,101718.91
2018-11-03T12:53:28.242Z,101711.63
2018-11-03T12:55:55.747Z,101706.80
2018-11-03T12:58:23.253Z,101707.91
2018-11-03T13:00:50.816Z,101695.27
2018-11-03T13:03:18.339Z,101695.27
2018-11-03T13:05:45.918Z,101691.39
2018-11-03T13:08:13.525Z,101680.00
2018-11-03T13:10:40.984Z,101680.00
2018-11-03T13:13:08.443Z,101679.59
2018-11-03T13:15:35.910Z,101680.83
2018-11-03T13:18:03.579Z,101677.91
2018-11-03T13:20:31.062Z,101673.39
2018-11-03T13:22:58.871Z,101675.81
2018-11-03T13:25:26.461Z,101673.27
2018-11-03T13:27:54.116Z,101674.13
2018-11-03T13:30:21.577Z,101672.44
2018-11-03T13:32:49.271Z,101664.05
2018-11-03T13:35:16.963Z,101670.51
2018-11-03T13:37:44.414Z,101674.97
2018-11-03T13:40:13.066Z,101670.05
2018-11-03T13:42:40.904Z,101664.41
2018-11-03T13:45:09.062Z,101662.62
2018-11-03T13:47:37.604Z,101661.70
2018-11-03T13:50:10.581Z,101656.14
2018-11-03T13:52:38.061Z,101647.84
2018-11-03T13:55:06.386Z,101649.35
2018-11-03T13:57:33.885Z,101639.83
2018-11-03T14:00:01.368Z,101638.60
2018-11-03T14:02:28.852Z,101627.48
2018-11-03T14:04:56.349Z,101628.07
2018-11-03T14:07:23.922Z,101622.52
2018-11-03T14:09:51.410Z,101619.13
2018-11-03T14:12:18.995Z,101610.47
2018-11-03T14:14:46.538Z,101615.36
2018-11-03T14:17:14.254Z,101611.34
2018-11-03T14:19:41.710Z,101607.96
2018-11-03T14:22:09.170Z,101604.95
2018-11-03T14:24:36.687Z,101604.00
2018-11-03T14:27:04.203Z,101607.78
2018-11-03T14:29:31.644Z,101612.33
2018-11-03T14:31:59.181Z,101607.07
2018-11-03T14:34:26.685Z,101607.47
2018-11-03T14:36:54.267Z,101600.96
2018-11-03T14:39:21.749Z,101600.13
2018-11-03T14:41:49.626Z,101594.30
2018-11-03T14:44:17.074Z,101586.56
2018-11-03T14:46:44.880Z,101580.73
2018-11-03T14:49:12.653Z,101580.73
2018-11-03T14:51:40.212Z,101582.80
2018-11-03T14:54:07.966Z,101581.24
2018-11-03T14:56:35.739Z,101574.45
2018-11-03T14:59:03.194Z,101581.70
2018-11-03T15:01:30.839Z,101578.50
2018-11-03T15:03:58.363Z,101569.94
2018-11-03T15:06:25.938Z,101569.78
2018-11-03T15:08:53.429Z,101572.23
2018-11-03T15:11:20.939Z,101574.59
2018-11-03T15:13:48.524Z,101563.32
2018-11-03T15:16:15.950Z,101565.50
2018-11-03T15:18:43.475Z,101565.22
2018-11-03T15:21:11.069Z,101560.50
2018-11-03T15:23:38.586Z,101566.20
2018-11-03T15:26:06.067Z,101560.81
2018-11-03T15:28:33.513Z,101553.39
2018-11-03T15:31:01.069Z,101551.52
2018-11-03T15:33:28.507Z,101547.11
2018-11-03T15:35:56.033Z,101554.36
2018-11-03T15:38:23.699Z,101550.13
2018-11-03T15:40:51.308Z,101547.30
2018-11-03T15:43:18.945Z,101542.98
2018-11-03T15:45:46.577Z,101542.70
2018-11-03T15:48:14.135Z,101550.52
2018-11-03T15:50:47.716Z,101543.27
2018-11-03T15:53:15.282Z,101546.11
2018-11-03T15:55:42.774Z,101544.30
2018-11-03T15:58:10.324Z,101542.03
2018-11-03T16:00:38.040Z,101548.53
2018-11-03T16:03:05.552Z,101541.86
2018-11-03T16:05:33.112Z,101537.41
2018-11-03T16:08:00.528Z,101542.42
2018-11-03T16:10:28.097Z,101536.48
2018-11-03T16:12:55.574Z,101545.74
2018-11-03T16:15:23.128Z,101544.70
2018-11-03T16:17:50.564Z,101545.71
2018-11-03T16:20:18.054Z,101545.52
2018-11-03T16:22:45.596Z,101538.46
2018-11-03T16:25:13.112Z,101536.91
2018-11-03T16:27:40.848Z,101547.72
2018-11-03T16:30:11.034Z,101540.81
2018-11-03T16:32:38.646Z,101549.73
2018-11-03T16:35:06.396Z,101538.24
2018-11-03T16:37:33.930Z,101540.95
2018-11-03T16:40:01.439Z,101542.45
2018-11-03T16:42:28.982Z,101543.55
2018-11-03T16:44:56.508Z,101534.31
2018-11-03T16:47:24.372Z,101543.22
2018-11-03T16:49:51.842Z,101547.20
2018-11-03T16:52:19.437Z,101541.34
2018-11-03T16:54:47.057Z,101535.47
2018-11-03T16:57:14.580Z,101546.93
2018-11-03T16:59:42.040Z,101541.48
2018-11-03T17:02:09.506Z,101542.09
2018-11-03T17:04:37.106Z,101546.07
2018-11-03T17:07:04.940Z,101543.86
2018-11-03T17:09:32.515Z,101548.92
2018-11-03T17:12:00.385Z,101543.82
2018-11-03T17:14:28.256Z,101548.03
2018-11-03T17:16:55.738Z,101546.59
2018-11-03T17:19:23.306Z,101541.80
2018-11-03T17:21:57.464Z,101537.59
2018-11-03T17:24:25.137Z,101531.50
2018-11-03T17:26:52.607Z,101534.92
2018-11-03T17:29:20.167Z,101534.50
2018-11-03T17:31:47.648Z,101538.48
2018-11-03T17:34:15.137Z,101532.97
2018-11-03T17:36:42.719Z,101537.05
2018-11-03T17:39:11.251Z,101537.39
2018-11-03T17:41:38.775Z,101534.98
2018-11-03T17:44:06.737Z,101529.58
2018-11-03T17:46:34.691Z,101531.63
2018-11-03T17:49:02.184Z,101531.78
2018-11-03T17:51:29.626Z,101530.73
2018-11-03T17:53:57.295Z,101525.34
2018-11-03T17:56:24.907Z,101524.06
2018-11-03T17:58:52.391Z,101529.00
2018-11-03T18:01:20.023Z,101523.94
2018-11-03T18:03:47.555Z,101516.43
2018-11-03T18:06:15.101Z,101521.86
2018-11-03T18:08:42.767Z,101515.55
2018-11-03T18:13:44.760Z,101508.81
2018-11-03T18:16:12.304Z,101506.82
2018-11-03T18:18:41.076Z,101506.95
2018-11-03T18:21:08.766Z,101507.00
2018-11-03T18:23:36.207Z,101512.59
2018-11-03T18:26:03.771Z,101509.36
2018-11-03T18:28:31.260Z,101512.16
2018-11-03T18:30:58.865Z,101505.59
2018-11-03T18:33:26.563Z,101501.91
2018-11-03T18:35:53.847Z,101500.44
2018-11-03T18:38:21.419Z,101495.37
2018-11-03T18:40:48.855Z,101501.17
2018-11-03T18:43:16.323Z,101501.17
2018-11-03T18:45:43.907Z,101496.30
2018-11-03T18:48:11.571Z,101490.98
2018-11-03T18:50:39.287Z,101493.66
2018-11-03T18:53:06.751Z,101492.28
2018-11-03T18:55:34.281Z,101487.75
2018-11-03T18:58:01.808Z,101483.95
2018-11-03T19:00:29.332Z,101484.14
2018-11-03T19:02:56.808Z,101483.88
2018-11-03T19:05:24.257Z,101488.73
2018-11-03T19:07:51.811Z,101483.77
2018-11-03T19:10:19.401Z,101481.89
2018-11-03T19:12:46.851Z,101483.54
2018-11-03T19:15:14.379Z,101469.91
2018-11-03T19:17:41.881Z,101468.33
2018-11-03T19:20:11.651Z,101473.23
2018-11-03T19:22:39.567Z,101470.63
2018-11-03T19:25:08.783Z,101471.59
2018-11-03T19:27:36.476Z,101469.93
2018-11-03T19:30:05.441Z,101463.50
2018-11-03T19:32:33.226Z,101468.00
2018-11-03T19:35:00.846Z,101462.94
2018-11-03T19:37:28.405Z,101450.61
2018-11-03T19:39:56.044Z,101461.63
2018-11-03T19:42:23.621Z,101456.25
2018-11-03T19:44:51.049Z,101450.71
2018-11-03T19:47:18.495Z,101461.72
2018-11-03T19:49:46.126Z,101460.70
2018-11-03T19:52:13.651Z,101456.27
2018-11-03T19:54:41.173Z,101456.47
2018-11-03T19:57:08.747Z,101459.84
2018-11-03T19:59:36.259Z,101454.02
2018-11-03T20:02:03.771Z,101453.07
2018-11-03T20:04:31.293Z,101452.91
2018-11-03T20:06:58.775Z,101459.78
2018-11-03T20:09:26.256Z,101454.80
2018-11-03T20:11:53.802Z,101450.58
2018-11-03T20:14:21.284Z,101443.63
2018-11-03T20:16:48.927Z,101443.50
2018-11-03T20:19:16.504Z,101440.87
2018-11-03T20:21:44.026Z,101440.05
2018-11-03T20:24:11.491Z,101443.50
2018-11-03T20:26:39.350Z,101439.02
2018-11-03T20:29:07.486Z,101431.49
2018-11-03T20:31:35.031Z,101428.86
2018-11-03T20:34:02.711Z,101421.70
2018-11-03T20:36:30.199Z,101417.19
2018-11-03T20:38:57.726Z,101420.19
2018-11-03T20:41:25.429Z,101419.65
2018-11-03T20:43:53.069Z,101407.14
2018-11-03T20:46:20.568Z,101407.59
2018-11-03T20:48:48.187Z,101403.73
2018-11-03T20:51:15.780Z,101403.56
2018-11-03T20:53:43.241Z,101400.84
2018-11-03T20:56:10.782Z,101391.80
2018-11-03T20:58:38.435Z,101387.11
2018-11-03T21:01:06.180Z,101384.39
2018-11-03T21:03:33.751Z,101389.00
2018-11-03T21:06:01.392Z,101390.11
2018-11-03T21:08:28.949Z,101395.86
2018-11-03T21:10:56.732Z,101389.16
2018-11-03T21:13:24.277Z,101396.61
2018-11-03T21:15:51.726Z,101387.11
2018-11-03T21:18:19.213Z,101388.50
2018-11-03T21:20:46.729Z,101388.62
2018-11-03T21:23:14.444Z,101382.95
2018-11-03T21:25:41.985Z,101380.89
2018-11-03T21:28:09.532Z,101375.17
2018-11-03T21:30:37.047Z,101372.17
2018-11-03T21:33:05.025Z,101369.05
2018-11-03T21:35:32.313Z,101378.63
2018-11-03T21:37:59.910Z,101375.06
2018-11-03T21:40:27.561Z,101368.23
2018-11-03T21:42:55.271Z,101364.38
2018-11-03T21:45:22.913Z,101354.22
2018-11-03T21:47:50.515Z,101356.27
2018-11-03T21:50:17.975Z,101347.72
2018-11-03T21:57:48.926Z,101353.84
2018-11-03T22:00:16.578Z,101349.61
2018-11-03T22:02:44.035Z,101344.80
2018-11-03T22:05:12.864Z,101342.17
2018-11-03T22:07:40.824Z,101342.45
2018-11-03T22:10:08.997Z,101340.77
2018-11-03T22:12:36.666Z,101340.20
2018-11-03T22:15:04.568Z,101341.34
2018-11-03T22:17:32.094Z,101332.02
2018-11-03T22:19:59.565Z,101338.14
2018-11-03T22:22:27.031Z,101334.94
2018-11-03T22:24:54.557Z,101333.91
2018-11-03T22:27:22.114Z,101327.33
2018-11-03T22:29:49.647Z,101325.64
2018-11-03T22:32:17.243Z,101324.32
2018-11-03T22:34:44.723Z,101310.95
2018-11-03T22:37:12.341Z,101310.88
2018-11-03T22:39:40.512Z,101306.47
2018-11-03T22:42:08.276Z,101305.52
2018-11-03T22:44:35.647Z,101302.40
2018-11-03T22:47:09.823Z,101304.87
2018-11-03T22:49:37.245Z,101305.98
2018-11-03T22:52:06.013Z,101294.99
2018-11-03T22:54:34.400Z,101294.42
2018-11-03T22:57:01.971Z,101293.17
2018-11-03T22:59:29.565Z,101292.14
2018-11-03T23:01:57.405Z,101285.68
2018-11-03T23:04:24.880Z,101284.06
2018-11-03T23:06:52.376Z,101277.30
2018-11-03T23:09:19.830Z,101280.22
2018-11-03T23:11:47.290Z,101264.15
2018-11-03T23:14:14.776Z,101263.57
2018-11-03T23:16:42.286Z,101256.81
2018-11-03T23:19:09.992Z,101259.73
2018-11-03T23:21:37.494Z,101257.37
2018-11-03T23:24:05.850Z,101255.57
2018-11-03T23:26:33.581Z,101254.34
2018-11-03T23:29:01.154Z,101246.36
2018-11-03T23:31:28.608Z,101238.30
2018-11-03T23:33:56.068Z,101238.30
2018-11-03T23:36:23.570Z,101236.13
2018-11-03T23:38:51.008Z,101233.41
2018-11-03T23:41:18.524Z,101232.39
2018-11-03T23:48:48.741Z,101227.79
2018-11-03T23:51:16.390Z,101224.39
2018-11-03T23:53:43.836Z,101219.13
2018-11-03T23:56:11.326Z,101222.70
2018-11-03T23:58:38.776Z,101221.69
